Time;durP1;ratioP1;P1;durP2;ratioP2;P2;SDS_P1;SDS_P2;PMS_P1;PMS_P2;Temp;Humidity;BMP_temperature;BMP_pressure;BME280_temperature;BME280_humidity;BME280_pressure;Samples;Min_cycle;Max_cycle;Signal;HPM_P1;HPM_P2
2023/04/19 00:00:27;;;;;;;39.73;35.73;;;9.80;99.90;;;;;;5061844;28;20193;-52
2023/04/19 00:02:53;;;;;;;41.70;37.50;;;9.80;99.90;;;;;;5061378;28;20280;-48
2023/04/19 00:05:21;;;;;;;40.50;36.27;;;9.80;99.90;;;;;;5061051;28;20210;-52
2023/04/19 00:07:46;;;;;;;38.33;34.50;;;9.80;99.90;;;;;;5061350;28;20182;-50
2023/04/19 00:10:12;;;;;;;38.17;34.33;;;9.80;99.90;;;;;;5060886;28;20458;-48
2023/04/19 00:12:38;;;;;;;37.97;34.17;;;9.80;99.90;;;;;;5061179;28;20199;-49
2023/04/19 00:15:04;;;;;;;38.20;34.43;;;9.80;99.90;;;;;;5058086;28;20190;-50
2023/04/19 00:17:30;;;;;;;38.03;34.33;;;9.80;99.90;;;;;;5061076;28;20196;-48
2023/04/19 00:19:56;;;;;;;38.27;34.40;;;9.80;99.90;;;;;;5061090;28;20446;-47
2023/04/19 00:22:22;;;;;;;35.33;32.07;;;9.80;99.90;;;;;;5061089;28;20270;-50
2023/04/19 00:24:48;;;;;;;36.60;33.13;;;9.80;99.90;;;;;;5061305;28;20552;-50
2023/04/19 00:27:13;;;;;;;34.07;30.77;;;9.80;99.90;;;;;;5061296;28;20466;-47
2023/04/19 00:29:39;;;;;;;34.47;31.10;;;9.80;99.90;;;;;;5060382;28;20194;-49
2023/04/19 00:32:05;;;;;;;32.77;29.77;;;9.80;99.90;;;;;;5060303;28;20550;-49
2023/04/19 00:34:31;;;;;;;32.53;29.30;;;9.80;99.90;;;;;;5061203;28;20192;-45
2023/04/19 00:36:56;;;;;;;31.97;28.83;;;9.80;99.90;;;;;;5061207;28;20278;-47
2023/04/19 00:39:22;;;;;;;31.13;28.17;;;9.80;99.90;;;;;;5061404;28;20558;-49
2023/04/19 00:41:48;;;;;;;30.07;27.40;;;9.70;99.90;;;;;;5060032;28;20446;-45
2023/04/19 00:44:13;;;;;;;28.10;25.70;;;9.70;99.90;;;;;;5060708;28;20448;-48
2023/04/19 00:46:40;;;;;;;30.93;28.23;;;9.70;99.90;;;;;;5060659;28;20290;-45
2023/04/19 00:49:06;;;;;;;25.80;23.47;;;9.70;99.90;;;;;;5059460;28;20191;-47
2023/04/19 00:51:32;;;;;;;25.73;23.43;;;9.70;99.90;;;;;;5059939;28;20447;-49
2023/04/19 00:53:57;;;;;;;26.57;24.07;;;9.70;99.90;;;;;;5060658;28;21530;-49
2023/04/19 00:56:25;;;;;;;25.67;23.00;;;9.70;99.90;;;;;;5060558;28;20452;-47
2023/04/19 00:58:52;;;;;;;24.37;22.37;;;9.70;99.90;;;;;;5060655;28;20444;-50
2023/04/19 01:01:18;;;;;;;24.80;22.50;;;9.60;99.90;;;;;;5058770;28;20440;-47
2023/04/19 01:03:45;;;;;;;23.03;21.23;;;9.70;99.90;;;;;;5059293;28;20509;-48
2023/04/19 01:06:11;;;;;;;22.70;20.90;;;9.70;99.90;;;;;;5060246;28;20538;-50
2023/04/19 01:08:38;;;;;;;22.70;20.80;;;9.60;99.90;;;;;;5060024;28;20935;-47
2023/04/19 01:11:04;;;;;;;22.77;20.97;;;9.60;99.90;;;;;;5042416;28;20192;-46
2023/04/19 01:13:30;;;;;;;23.10;21.30;;;9.70;99.90;;;;;;5060301;28;20503;-47
2023/04/19 01:15:56;;;;;;;22.40;20.70;;;9.60;99.90;;;;;;5058990;28;20565;-47
2023/04/19 01:18:28;;;;;;;22.37;20.47;;;9.60;99.90;;;;;;5059681;28;20202;-45
2023/04/19 01:20:54;;;;;;;22.03;20.13;;;9.60;99.90;;;;;;5059781;28;21400;-45
2023/04/19 01:23:20;;;;;;;22.67;20.77;;;9.60;99.90;;;;;;5041900;28;20575;-45
2023/04/19 01:25:46;;;;;;;21.73;19.83;;;9.60;99.90;;;;;;5060423;28;20460;-48
2023/04/19 01:28:12;;;;;;;21.90;20.10;;;9.50;99.90;;;;;;5059536;28;20447;-51
2023/04/19 01:30:37;;;;;;;21.47;19.63;;;9.50;99.90;;;;;;5059827;28;20424;-48
2023/04/19 01:33:03;;;;;;;21.93;20.23;;;9.50;99.90;;;;;;5060024;28;20253;-47
2023/04/19 01:35:29;;;;;;;21.73;19.93;;;9.50;99.90;;;;;;5059885;28;20196;-46
2023/04/19 01:37:55;;;;;;;21.30;19.70;;;9.50;99.90;;;;;;5059721;28;20313;-48
2023/04/19 01:40:24;;;;;;;20.63;19.13;;;9.50;99.90;;;;;;5058961;28;20183;-50
2023/04/19 01:42:50;;;;;;;21.27;19.57;;;9.50;99.90;;;;;;5058459;28;21052;-45
2023/04/19 01:45:16;;;;;;;20.93;19.20;;;9.50;99.90;;;;;;5059118;28;20767;-47
2023/04/19 01:47:41;;;;;;;20.40;18.90;;;9.50;99.90;;;;;;5059435;28;20934;-47
2023/04/19 01:50:07;;;;;;;21.20;19.50;;;9.50;99.90;;;;;;5058904;28;20786;-46
2023/04/19 01:52:33;;;;;;;20.80;18.83;;;9.50;99.90;;;;;;5040939;28;20191;-44
2023/04/19 01:54:59;;;;;;;20.20;18.60;;;9.50;99.90;;;;;;5059754;28;20671;-48
2023/04/19 01:57:24;;;;;;;21.23;19.53;;;9.50;99.90;;;;;;5058373;28;20495;-46
2023/04/19 01:59:52;;;;;;;22.30;20.30;;;9.50;99.90;;;;;;5059323;28;20678;-50
2023/04/19 02:02:18;;;;;;;20.50;18.90;;;9.50;99.90;;;;;;5058906;28;20244;-47
2023/04/19 02:04:43;;;;;;;20.67;19.10;;;9.40;99.90;;;;;;5058615;28;20540;-46
2023/04/19 02:07:09;;;;;;;21.67;19.87;;;9.40;99.90;;;;;;5059747;28;20182;-49
2023/04/19 02:09:36;;;;;;;22.10;20.40;;;9.40;99.90;;;;;;5058335;28;20269;-46
2023/04/19 02:12:01;;;;;;;22.13;20.33;;;9.30;99.90;;;;;;5059680;28;20620;-48
2023/04/19 02:14:27;;;;;;;22.00;20.27;;;9.20;99.90;;;;;;5059653;28;20419;-49
2023/04/19 02:16:53;;;;;;;21.63;19.63;;;9.30;99.90;;;;;;5059130;28;20458;-51
2023/04/19 02:19:19;;;;;;;22.43;20.43;;;9.30;99.90;;;;;;5058434;28;20754;-51
2023/04/19 02:21:44;;;;;;;21.93;20.13;;;9.30;99.90;;;;;;5058830;28;20477;-53
2023/04/19 02:24:10;;;;;;;22.27;20.47;;;9.30;99.90;;;;;;5059047;28;20199;-52
2023/04/19 02:26:35;;;;;;;22.63;20.93;;;9.20;99.90;;;;;;5058426;28;20221;-51
2023/04/19 02:29:01;;;;;;;22.17;20.47;;;9.20;99.90;;;;;;5058950;28;20189;-50
2023/04/19 02:31:27;;;;;;;22.77;20.77;;;9.20;99.90;;;;;;5058594;28;20931;-48
2023/04/19 02:33:52;;;;;;;22.20;20.40;;;9.20;99.90;;;;;;5059324;28;20183;-49
2023/04/19 02:36:18;;;;;;;21.97;20.20;;;9.20;99.90;;;;;;5058927;28;20203;-52
2023/04/19 02:38:44;;;;;;;21.90;20.30;;;9.20;99.90;;;;;;5058286;28;20186;-50
2023/04/19 02:41:09;;;;;;;21.90;20.17;;;9.20;99.90;;;;;;5058300;28;20255;-49
2023/04/19 02:43:35;;;;;;;23.73;21.47;;;9.20;99.90;;;;;;5059112;28;20665;-49
2023/04/19 02:46:01;;;;;;;22.03;20.33;;;9.10;99.90;;;;;;5058561;28;20222;-50
2023/04/19 02:48:26;;;;;;;22.23;20.50;;;9.10;99.90;;;;;;5057402;28;20282;-54
2023/04/19 02:50:52;;;;;;;23.80;21.77;;;9.20;99.90;;;;;;5059199;28;20194;-52
2023/04/19 02:53:17;;;;;;;22.90;21.13;;;9.20;99.90;;;;;;5058535;28;20205;-51
2023/04/19 02:55:43;;;;;;;23.77;21.63;;;9.20;99.90;;;;;;5062645;28;20554;-51
2023/04/19 02:58:09;;;;;;;23.77;21.97;;;9.10;99.90;;;;;;5061819;28;20187;-50
2023/04/19 03:00:34;;;;;;;23.37;21.40;;;9.10;99.90;;;;;;5062427;28;20663;-49
2023/04/19 03:03:02;;;;;;;23.17;20.97;;;9.10;99.90;;;;;;5062303;28;20229;-49
2023/04/19 03:05:28;;;;;;;22.57;20.77;;;9.10;99.90;;;;;;5061720;28;20205;-50
2023/04/19 03:07:53;;;;;;;22.23;20.23;;;9.10;99.90;;;;;;5061468;28;20445;-51
2023/04/19 03:10:19;;;;;;;22.20;20.40;;;9.10;99.90;;;;;;5061262;28;20184;-47
2023/04/19 03:12:45;;;;;;;22.03;20.20;;;9.00;99.90;;;;;;5062062;28;20177;-53
2023/04/19 03:15:11;;;;;;;23.20;21.20;;;9.10;99.90;;;;;;5062430;28;20194;-49
2023/04/19 03:17:36;;;;;;;23.80;21.80;;;9.00;99.90;;;;;;5061035;28;20189;-51
2023/04/19 03:20:08;;;;;;;22.03;20.03;;;9.00;99.90;;;;;;5062701;28;20701;-49
2023/04/19 03:22:34;;;;;;;23.00;21.10;;;9.00;99.90;;;;;;5062520;28;20676;-48
2023/04/19 03:24:59;;;;;;;22.47;20.57;;;9.00;99.90;;;;;;5062789;28;20615;-50
2023/04/19 03:27:27;;;;;;;23.63;21.53;;;8.90;99.90;;;;;;5062086;28;20181;-52
2023/04/19 03:29:54;;;;;;;24.53;22.33;;;8.90;99.90;;;;;;5062541;28;20231;-46
2023/04/19 03:32:20;;;;;;;24.33;22.17;;;8.90;99.90;;;;;;5061515;28;20534;-53
2023/04/19 03:34:46;;;;;;;23.77;21.80;;;8.90;99.90;;;;;;5061749;28;20500;-51
2023/04/19 03:37:11;;;;;;;26.10;23.87;;;8.90;99.90;;;;;;5061274;28;20193;-47
2023/04/19 03:39:37;;;;;;;25.03;22.87;;;8.90;99.90;;;;;;5062101;28;20695;-51
2023/04/19 03:42:02;;;;;;;25.40;23.27;;;8.90;99.90;;;;;;5062003;28;20195;-52
2023/04/19 03:44:31;;;;;;;27.60;24.80;;;8.80;99.90;;;;;;5061255;28;20635;-49
2023/04/19 03:46:57;;;;;;;28.47;25.97;;;8.80;99.90;;;;;;5060894;28;20606;-50
2023/04/19 03:49:22;;;;;;;28.17;25.47;;;8.80;99.90;;;;;;5061969;28;20497;-53
2023/04/19 03:51:48;;;;;;;27.10;24.60;;;8.70;99.90;;;;;;5062093;28;20192;-52
2023/04/19 03:54:14;;;;;;;27.13;24.83;;;8.60;99.90;;;;;;5061496;28;20280;-46
2023/04/19 03:56:39;;;;;;;27.87;25.17;;;8.60;99.90;;;;;;5062817;28;20181;-46
2023/04/19 03:59:05;;;;;;;29.57;26.73;;;8.60;99.90;;;;;;5060293;28;20474;-45
2023/04/19 04:01:30;;;;;;;28.03;25.60;;;8.50;99.90;;;;;;5062284;28;20650;-49
2023/04/19 04:03:56;;;;;;;29.30;26.60;;;8.50;99.90;;;;;;5061127;28;20185;-45
2023/04/19 04:06:21;;;;;;;28.73;26.20;;;8.60;99.90;;;;;;5059882;28;20542;-51
2023/04/19 04:08:47;;;;;;;27.80;25.20;;;8.50;99.90;;;;;;5060979;28;20178;-50
2023/04/19 04:11:13;;;;;;;29.10;26.40;;;8.60;99.90;;;;;;5060629;28;20250;-48
2023/04/19 04:13:38;;;;;;;27.67;25.27;;;8.60;99.90;;;;;;5061673;28;20183;-47
2023/04/19 04:16:04;;;;;;;30.10;27.23;;;8.60;99.90;;;;;;5060817;28;20181;-49
2023/04/19 04:18:30;;;;;;;28.20;25.70;;;8.50;99.90;;;;;;5061888;28;20562;-50
2023/04/19 04:20:56;;;;;;;28.80;25.93;;;8.50;99.90;;;;;;5059685;28;20719;-50
2023/04/19 04:23:22;;;;;;;27.43;24.93;;;8.50;99.90;;;;;;5061487;28;20547;-48
2023/04/19 04:25:56;;;;;;;26.93;24.60;;;8.40;99.90;;;;;;5061258;28;20201;-47
2023/04/19 04:28:22;;;;;;;26.90;24.60;;;8.40;99.90;;;;;;5062391;28;20427;-48
2023/04/19 04:30:48;;;;;;;25.40;23.33;;;8.30;99.90;;;;;;5062193;28;20929;-48
2023/04/19 04:33:13;;;;;;;26.20;23.80;;;8.30;99.90;;;;;;5062683;28;20177;-52
2023/04/19 04:35:40;;;;;;;26.27;23.87;;;8.30;99.90;;;;;;5060800;28;20192;-51
2023/04/19 04:38:06;;;;;;;26.30;23.80;;;8.30;99.90;;;;;;5062057;28;20196;-50
2023/04/19 04:40:32;;;;;;;25.33;23.03;;;8.30;99.90;;;;;;5062409;28;21243;-47
2023/04/19 04:42:59;;;;;;;24.53;22.43;;;8.20;99.90;;;;;;5062561;28;20444;-50
2023/04/19 04:45:25;;;;;;;24.20;22.10;;;8.20;99.90;;;;;;5062467;28;20464;-50
2023/04/19 04:47:51;;;;;;;23.83;21.93;;;8.10;99.90;;;;;;5062069;28;20407;-48
2023/04/19 04:50:17;;;;;;;23.13;21.03;;;8.10;99.90;;;;;;5061053;28;20703;-49
2023/04/19 04:52:42;;;;;;;25.33;22.80;;;8.20;99.90;;;;;;5061058;28;20635;-47
2023/04/19 04:55:08;;;;;;;23.10;21.00;;;8.20;99.90;;;;;;5061175;28;20420;-48
2023/04/19 04:57:34;;;;;;;21.93;19.93;;;8.10;99.90;;;;;;5061114;28;20268;-50
2023/04/19 04:59:59;;;;;;;21.03;19.27;;;8.10;99.90;;;;;;5061097;28;20477;-51
2023/04/19 05:02:25;;;;;;;20.43;18.47;;;8.10;99.90;;;;;;5060262;28;20856;-48
2023/04/19 05:04:51;;;;;;;20.30;18.60;;;8.10;99.90;;;;;;5060742;28;20298;-54
2023/04/19 05:07:16;;;;;;;20.53;18.90;;;8.00;99.90;;;;;;5042828;28;20266;-48
2023/04/19 05:09:42;;;;;;;20.63;19.00;;;7.90;99.90;;;;;;5060943;28;20178;-51
2023/04/19 05:12:07;;;;;;;19.80;18.30;;;8.00;99.90;;;;;;5060267;28;20173;-53
2023/04/19 05:14:33;;;;;;;20.00;18.50;;;8.00;99.90;;;;;;5060217;28;20185;-45
2023/04/19 05:16:59;;;;;;;19.93;18.17;;;8.00;99.90;;;;;;5060621;28;20181;-48
2023/04/19 05:19:24;;;;;;;18.80;17.30;;;8.00;99.90;;;;;;5060270;28;20184;-50
2023/04/19 05:21:50;;;;;;;18.00;16.70;;;8.00;99.90;;;;;;5060494;28;20185;-48
2023/04/19 05:24:15;;;;;;;18.17;16.73;;;8.10;99.90;;;;;;5060583;28;20519;-47
2023/04/19 05:26:41;;;;;;;18.00;16.70;;;8.10;99.90;;;;;;5060497;28;20448;-48
2023/04/19 05:29:07;;;;;;;17.00;15.80;;;8.10;99.90;;;;;;5060374;28;20175;-47
2023/04/19 05:31:32;;;;;;;16.93;15.43;;;8.10;99.90;;;;;;5060278;28;20177;-50
2023/04/19 05:33:58;;;;;;;15.50;14.50;;;8.10;99.90;;;;;;5060288;28;20186;-49
2023/04/19 05:36:23;;;;;;;17.50;16.00;;;8.10;99.90;;;;;;5060037;28;20185;-50
2023/04/19 05:38:49;;;;;;;14.90;13.70;;;8.00;99.90;;;;;;5060042;28;20185;-48
2023/04/19 05:41:15;;;;;;;16.37;15.13;;;8.00;99.90;;;;;;5059645;28;20189;-46
2023/04/19 05:43:40;;;;;;;15.77;14.57;;;7.90;99.90;;;;;;5059913;28;20173;-47
2023/04/19 05:46:06;;;;;;;14.97;13.97;;;7.80;99.90;;;;;;5060029;28;20237;-49
2023/04/19 05:48:31;;;;;;;15.90;14.90;;;7.70;99.90;;;;;;5060023;28;20635;-49
2023/04/19 05:50:58;;;;;;;15.70;14.60;;;7.60;99.90;;;;;;5059924;28;20185;-48
2023/04/19 05:53:24;;;;;;;14.73;13.83;;;7.60;99.90;;;;;;5060095;28;20180;-53
2023/04/19 05:55:50;;;;;;;15.10;14.10;;;7.50;99.90;;;;;;5059821;28;20419;-51
2023/04/19 05:58:17;;;;;;;14.77;13.80;;;7.60;99.90;;;;;;5060191;28;20201;-46
2023/04/19 06:00:42;;;;;;;15.17;14.17;;;7.60;99.90;;;;;;5060025;28;20906;-51
2023/04/19 06:03:08;;;;;;;14.70;13.90;;;7.60;99.90;;;;;;5060075;28;20619;-48
2023/04/19 06:05:34;;;;;;;15.10;14.10;;;7.70;99.90;;;;;;5060232;28;20978;-53
2023/04/19 06:07:59;;;;;;;14.57;13.30;;;7.60;99.90;;;;;;5059353;28;20173;-49
2023/04/19 06:10:25;;;;;;;15.40;14.07;;;7.70;99.90;;;;;;5059264;28;20238;-50
2023/04/19 06:12:50;;;;;;;14.90;13.90;;;7.70;99.90;;;;;;5059493;28;20177;-48
2023/04/19 06:15:16;;;;;;;13.80;12.90;;;7.80;99.90;;;;;;5059903;28;20177;-49
2023/04/19 06:17:42;;;;;;;14.33;13.37;;;7.80;99.90;;;;;;5041773;28;20235;-48
2023/04/19 06:20:08;;;;;;;13.83;12.83;;;7.90;99.90;;;;;;5059714;28;20259;-49
2023/04/19 06:22:40;;;;;;;13.13;12.37;;;7.80;99.90;;;;;;5059605;28;20220;-50
2023/04/19 06:25:06;;;;;;;14.03;13.07;;;7.90;99.90;;;;;;5059796;28;20463;-48
2023/04/19 06:27:31;;;;;;;14.47;13.50;;;8.00;99.90;;;;;;5059883;28;20936;-48
2023/04/19 06:29:59;;;;;;;13.93;13.13;;;8.20;99.90;;;;;;5040578;28;20239;-49
2023/04/19 06:32:25;;;;;;;13.17;12.37;;;8.20;99.90;;;;;;5059569;28;20173;-52
2023/04/19 06:34:51;;;;;;;14.07;13.13;;;8.40;99.90;;;;;;5059272;28;20422;-53
2023/04/19 06:37:16;;;;;;;12.73;11.90;;;8.40;99.90;;;;;;5059153;28;20635;-47
2023/04/19 06:39:42;;;;;;;13.63;12.73;;;8.60;99.90;;;;;;5058872;28;20545;-48
2023/04/19 06:42:07;;;;;;;13.53;12.73;;;8.60;97.50;;;;;;5059450;28;20223;-49
2023/04/19 06:44:33;;;;;;;12.80;12.03;;;8.60;95.90;;;;;;5041587;28;20188;-50
2023/04/19 06:46:59;;;;;;;12.00;11.40;;;8.50;98.00;;;;;;5059127;28;20208;-48
2023/04/19 06:49:26;;;;;;;12.27;11.47;;;8.50;98.50;;;;;;5059017;28;20331;-49
2023/04/19 06:51:52;;;;;;;11.47;10.77;;;8.50;97.70;;;;;;5059269;28;20419;-49
2023/04/19 06:54:17;;;;;;;12.50;11.70;;;8.50;95.20;;;;;;5041075;28;20850;-46
2023/04/19 06:56:47;;;;;;;13.20;12.17;;;8.50;95.40;;;;;;5059425;28;20432;-49
2023/04/19 06:59:18;;;;;;;12.63;11.93;;;8.60;94.40;;;;;;5059564;28;20208;-46
2023/04/19 07:01:44;;;;;;;11.80;11.10;;;8.50;92.10;;;;;;5059137;28;20419;-47
2023/04/19 07:04:10;;;;;;;12.03;11.33;;;8.50;91.90;;;;;;5059312;28;20423;-49
2023/04/19 07:06:36;;;;;;;12.70;11.90;;;8.50;94.10;;;;;;5058946;28;20562;-50
2023/04/19 07:09:03;;;;;;;12.03;11.40;;;8.40;93.20;;;;;;5059076;28;20423;-50
2023/04/19 07:11:29;;;;;;;12.10;11.40;;;8.30;92.40;;;;;;5058244;28;20423;-50
2023/04/19 07:13:55;;;;;;;12.17;11.47;;;8.20;92.80;;;;;;5059060;28;20423;-46
2023/04/19 07:16:21;;;;;;;12.47;11.77;;;8.20;93.10;;;;;;5059222;28;21147;-51
2023/04/19 07:18:46;;;;;;;12.13;11.53;;;8.20;94.10;;;;;;5059181;28;20419;-53
2023/04/19 07:21:12;;;;;;;12.70;11.97;;;8.20;94.90;;;;;;5059023;28;20264;-51
2023/04/19 07:23:38;;;;;;;13.10;12.40;;;8.30;94.60;;;;;;5059116;28;20667;-51
2023/04/19 07:26:03;;;;;;;12.47;11.57;;;8.30;94.70;;;;;;5059049;28;20209;-48
2023/04/19 07:28:29;;;;;;;13.60;12.70;;;8.30;93.20;;;;;;5059285;28;20184;-53
2023/04/19 07:30:55;;;;;;;12.90;12.07;;;8.30;94.20;;;;;;5058843;28;20419;-47
2023/04/19 07:33:23;;;;;;;12.80;12.00;;;8.40;93.20;;;;;;5058985;28;21037;-49
2023/04/19 07:35:50;;;;;;;12.80;12.10;;;8.30;93.60;;;;;;5058921;28;20272;-45
2023/04/19 07:38:16;;;;;;;12.93;12.23;;;8.40;93.70;;;;;;5058920;28;20469;-49
2023/04/19 07:40:41;;;;;;;12.70;11.90;;;8.50;92.70;;;;;;5058072;28;20825;-47
2023/04/19 07:43:07;;;;;;;12.97;12.17;;;8.50;93.90;;;;;;5061920;28;20507;-49
2023/04/19 07:45:33;;;;;;;12.50;11.80;;;8.50;91.20;;;;;;5062425;28;20356;-49
2023/04/19 07:47:58;;;;;;;13.63;12.70;;;8.60;91.30;;;;;;5062297;28;20498;-48
2023/04/19 07:50:25;;;;;;;12.90;12.03;;;8.70;90.60;;;;;;5062395;28;20260;-47
2023/04/19 07:52:51;;;;;;;12.70;12.00;;;8.70;90.70;;;;;;5062398;28;20619;-47
2023/04/19 07:55:17;;;;;;;11.90;11.10;;;8.70;90.30;;;;;;5062375;28;20419;-48
2023/04/19 07:57:46;;;;;;;12.77;11.97;;;8.80;91.40;;;;;;5062264;28;20188;-47
2023/04/19 08:00:14;;;;;;;13.03;12.07;;;8.90;91.80;;;;;;5062138;28;20689;-48
2023/04/19 08:02:42;;;;;;;14.10;13.00;;;9.00;90.90;;;;;;5062293;28;20778;-50
2023/04/19 08:05:09;;;;;;;13.97;13.10;;;9.10;90.30;;;;;;5062552;28;20494;-48
2023/04/19 08:07:34;;;;;;;13.43;12.63;;;9.10;90.10;;;;;;5062564;28;20514;-49
2023/04/19 08:10:00;;;;;;;13.00;12.30;;;9.20;90.50;;;;;;5060684;28;20614;-46
2023/04/19 08:12:25;;;;;;;13.50;12.60;;;9.20;91.10;;;;;;5061491;28;20200;-45
2023/04/19 08:14:51;;;;;;;14.20;13.20;;;9.40;91.40;;;;;;5061889;28;20722;-49
2023/04/19 08:17:20;;;;;;;13.03;12.23;;;9.40;90.30;;;;;;5061713;28;20586;-48
2023/04/19 08:19:48;;;;;;;13.07;12.23;;;9.50;91.00;;;;;;5062037;28;20177;-50
2023/04/19 08:22:15;;;;;;;12.90;12.20;;;9.60;86.00;;;;;;5062029;28;20476;-51
2023/04/19 08:24:40;;;;;;;12.53;11.93;;;9.70;89.70;;;;;;5061760;28;20936;-49
2023/04/19 08:27:06;;;;;;;12.90;12.20;;;9.80;88.20;;;;;;5061721;28;20465;-49
2023/04/19 08:29:32;;;;;;;12.70;11.80;;;10.00;90.60;;;;;;5061550;28;20196;-48
2023/04/19 08:31:58;;;;;;;13.63;12.70;;;10.20;88.20;;;;;;5061523;28;20529;-47
2023/04/19 08:34:23;;;;;;;13.27;12.57;;;10.40;85.60;;;;;;5061893;28;20418;-49
2023/04/19 08:36:49;;;;;;;13.20;12.40;;;10.30;86.30;;;;;;5061304;28;20173;-44
2023/04/19 08:39:15;;;;;;;13.13;12.43;;;10.50;89.40;;;;;;5060993;28;20184;-49
2023/04/19 08:41:40;;;;;;;13.53;12.73;;;10.70;89.80;;;;;;5061095;28;20717;-53
2023/04/19 08:44:06;;;;;;;14.80;13.80;;;10.90;89.50;;;;;;5061457;28;20180;-50
2023/04/19 08:46:32;;;;;;;13.60;12.83;;;11.20;88.00;;;;;;5061454;28;20197;-49
2023/04/19 08:48:59;;;;;;;13.90;12.63;;;11.40;81.40;;;;;;5061256;28;20734;-51
2023/04/19 08:51:26;;;;;;;12.87;12.07;;;11.60;81.50;;;;;;5060937;28;20170;-47
2023/04/19 08:53:55;;;;;;;13.50;12.60;;;11.90;80.80;;;;;;5061307;28;20412;-50
2023/04/19 08:56:21;;;;;;;13.77;12.87;;;12.50;79.00;;;;;;5061098;28;20932;-50
2023/04/19 08:58:47;;;;;;;13.20;12.40;;;12.60;76.40;;;;;;5060919;28;21160;-51
2023/04/19 09:01:13;;;;;;;13.63;12.73;;;13.10;74.10;;;;;;5061198;28;20502;-47
2023/04/19 09:03:47;;;;;;;13.80;13.00;;;13.60;64.20;;;;;;5061074;28;20177;-53
2023/04/19 09:06:13;;;;;;;14.00;13.10;;;13.70;63.30;;;;;;5061109;28;20357;-50
2023/04/19 09:08:40;;;;;;;13.17;12.30;;;13.80;63.00;;;;;;5060882;28;20513;-48
2023/04/19 09:11:05;;;;;;;13.83;13.03;;;14.20;64.80;;;;;;5061035;28;20506;-51
2023/04/19 09:13:31;;;;;;;14.27;13.27;;;14.20;59.70;;;;;;5061539;28;20566;-52
2023/04/19 09:15:59;;;;;;;13.57;12.70;;;14.10;59.70;;;;;;5060803;28;20193;-51
2023/04/19 09:18:25;;;;;;;14.27;13.33;;;13.80;62.30;;;;;;5061203;28;20627;-49
2023/04/19 09:20:57;;;;;;;14.00;13.00;;;13.50;61.60;;;;;;5060742;28;20510;-51
2023/04/19 09:23:24;;;;;;;13.43;12.50;;;13.30;64.70;;;;;;5060650;28;20866;-50
2023/04/19 09:26:01;;;;;;;13.80;12.87;;;13.00;62.80;;;;;;5060352;28;20459;-49
2023/04/19 09:28:30;;;;;;;14.00;13.10;;;13.00;65.50;;;;;;5060704;28;20473;-48
2023/04/19 09:30:57;;;;;;;15.47;14.27;;;13.00;67.40;;;;;;5060424;28;20428;-49
2023/04/19 09:33:49;;;;;;;14.27;13.47;;;13.10;65.00;;;;;;5059826;28;21128;-51
2023/04/19 09:36:27;;;;;;;14.90;14.10;;;13.10;66.70;;;;;;5058513;28;20440;-48
2023/04/19 09:38:53;;;;;;;15.00;14.10;;;13.10;68.80;;;;;;5060600;28;20422;-52
2023/04/19 09:41:18;;;;;;;14.50;13.50;;;13.40;68.50;;;;;;5060170;28;20712;-52
2023/04/19 09:43:44;;;;;;;14.40;13.50;;;13.50;67.90;;;;;;5060432;28;20193;-50
2023/04/19 09:46:35;;;;;;;14.07;13.10;;;13.40;67.90;;;;;;5059905;28;20208;-49
2023/04/19 09:49:16;;;;;;;14.17;13.30;;;13.30;67.60;;;;;;5060153;28;20177;-52
2023/04/19 09:51:43;;;;;;;14.90;13.90;;;13.10;68.00;;;;;;5060413;28;20454;-50
2023/04/19 09:54:10;;;;;;;13.83;12.93;;;12.90;64.10;;;;;;5060214;28;20506;-54
2023/04/19 09:56:37;;;;;;;13.40;12.50;;;12.80;67.90;;;;;;5059684;28;20739;-54
2023/04/19 09:59:03;;;;;;;14.30;13.20;;;12.60;67.20;;;;;;5060283;28;20423;-55
2023/04/19 10:01:34;;;;;;;14.60;13.50;;;12.40;68.50;;;;;;5060279;28;21185;-51
2023/04/19 10:04:05;;;;;;;13.13;12.33;;;12.50;69.80;;;;;;5055758;28;20488;-52
2023/04/19 10:06:33;;;;;;;13.93;13.13;;;12.60;69.90;;;;;;5059986;28;20465;-50
2023/04/19 10:09:02;;;;;;;13.93;13.13;;;12.50;68.70;;;;;;5059898;28;20699;-54
2023/04/19 10:11:37;;;;;;;13.90;13.10;;;12.60;67.20;;;;;;5059661;28;20468;-48
2023/04/19 10:14:05;;;;;;;14.77;13.97;;;12.80;67.30;;;;;;5059725;28;20410;-50
2023/04/19 10:16:32;;;;;;;13.77;12.97;;;13.20;65.70;;;;;;5041634;28;20506;-50
2023/04/19 10:18:58;;;;;;;13.50;12.60;;;13.80;64.90;;;;;;5060402;28;20897;-51
2023/04/19 10:21:26;;;;;;;13.20;12.50;;;14.30;61.10;;;;;;5059841;28;20522;-47
2023/04/19 10:23:53;;;;;;;13.80;13.00;;;14.70;59.70;;;;;;5059999;28;20482;-50
2023/04/19 10:26:19;;;;;;;13.17;12.43;;;15.20;59.00;;;;;;5059576;28;20482;-50
2023/04/19 10:28:46;;;;;;;14.03;13.13;;;15.50;55.50;;;;;;5059974;28;20412;-52
2023/04/19 10:31:13;;;;;;;14.10;13.10;;;15.50;56.00;;;;;;5059966;28;20180;-49
2023/04/19 10:33:39;;;;;;;13.70;12.90;;;15.40;55.20;;;;;;5058776;28;20441;-54
2023/04/19 10:36:09;;;;;;;13.90;13.10;;;15.00;55.20;;;;;;5059563;28;20441;-48
2023/04/19 10:38:54;;;;;;;14.53;13.63;;;14.30;53.70;;;;;;5060240;28;20458;-47
2023/04/19 10:41:21;;;;;;;14.47;13.67;;;13.50;55.20;;;;;;5059365;28;20459;-49
2023/04/19 10:44:08;;;;;;;15.37;14.40;;;13.00;54.90;;;;;;5058829;28;20852;-51
2023/04/19 10:46:34;;;;;;;15.10;14.10;;;12.60;56.30;;;;;;5041389;28;20553;-46
2023/04/19 10:49:01;;;;;;;14.77;13.77;;;12.40;57.60;;;;;;5059540;28;20909;-48
2023/04/19 10:51:31;;;;;;;14.83;14.00;;;12.50;60.30;;;;;;5058967;28;20408;-46
2023/04/19 10:54:05;;;;;;;15.80;14.70;;;12.50;62.10;;;;;;5059278;28;20420;-49
2023/04/19 10:56:33;;;;;;;14.50;13.50;;;12.70;59.50;;;;;;5059568;28;20503;-52
2023/04/19 10:59:09;;;;;;;14.23;13.43;;;13.20;59.50;;;;;;5059105;28;20430;-46
2023/04/19 11:01:46;;;;;;;15.40;14.50;;;13.40;58.20;;;;;;5058592;28;21247;-47
2023/04/19 11:04:28;;;;;;;14.97;14.07;;;13.90;58.30;;;;;;5059032;28;20415;-49
2023/04/19 11:07:02;;;;;;;14.63;13.83;;;15.20;55.40;;;;;;5059221;28;20447;-48
2023/04/19 11:09:33;;;;;;;13.90;13.20;;;16.60;53.00;;;;;;5059555;28;20873;-47
2023/04/19 11:12:00;;;;;;;13.60;12.80;;;17.90;47.20;;;;;;5059566;28;20573;-50
2023/04/19 11:14:28;;;;;;;13.97;13.10;;;18.40;42.60;;;;;;5058330;28;20472;-48
2023/04/19 11:16:54;;;;;;;14.43;13.30;;;18.70;41.20;;;;;;5062863;28;20415;-52
2023/04/19 11:19:20;;;;;;;12.70;12.00;;;18.60;39.60;;;;;;5062630;28;20978;-52
2023/04/19 11:21:46;;;;;;;15.20;14.30;;;19.10;39.80;;;;;;5063125;28;20207;-47
2023/04/19 11:24:14;;;;;;;12.57;11.67;;;19.30;36.10;;;;;;5062719;28;20232;-54
2023/04/19 11:26:42;;;;;;;14.60;13.53;;;18.80;36.60;;;;;;5062703;28;20462;-54
2023/04/19 11:29:09;;;;;;;13.73;13.03;;;18.20;37.20;;;;;;5062890;28;20446;-50
2023/04/19 11:31:35;;;;;;;14.20;13.47;;;18.00;37.90;;;;;;5062021;28;20431;-53
2023/04/19 11:34:02;;;;;;;13.83;13.03;;;17.50;39.10;;;;;;5062595;28;20418;-46
2023/04/19 11:36:28;;;;;;;13.77;12.87;;;17.20;40.50;;;;;;5062697;28;20421;-50
2023/04/19 11:38:54;;;;;;;13.93;13.13;;;16.70;40.70;;;;;;5062793;28;20418;-52
2023/04/19 11:41:19;;;;;;;13.83;12.87;;;16.30;42.20;;;;;;5062831;28;20177;-51
2023/04/19 11:43:45;;;;;;;13.37;12.57;;;15.90;42.00;;;;;;5062305;28;20430;-49
2023/04/19 11:46:13;;;;;;;14.00;13.20;;;15.70;43.40;;;;;;5062249;28;20667;-49
2023/04/19 11:48:52;;;;;;;14.17;13.27;;;15.30;43.00;;;;;;5062142;28;20774;-51
2023/04/19 11:51:18;;;;;;;13.80;12.90;;;15.00;44.60;;;;;;5062184;28;20816;-50
2023/04/19 11:53:44;;;;;;;13.80;12.93;;;14.90;44.70;;;;;;5062625;28;20415;-48
2023/04/19 11:56:09;;;;;;;13.37;12.57;;;14.60;45.80;;;;;;5062197;28;20431;-50
2023/04/19 11:58:48;;;;;;;13.60;12.70;;;14.30;46.10;;;;;;5062273;28;20407;-47
2023/04/19 12:01:23;;;;;;;13.57;12.77;;;13.90;45.70;;;;;;5061080;28;20191;-48
2023/04/19 12:03:52;;;;;;;13.50;12.80;;;13.80;46.70;;;;;;5062328;28;20977;-49
2023/04/19 12:06:30;;;;;;;13.27;12.53;;;13.40;47.90;;;;;;5043804;28;21014;-49
2023/04/19 12:08:56;;;;;;;13.57;12.67;;;13.20;48.70;;;;;;5061921;28;20407;-52
2023/04/19 12:11:25;;;;;;;13.27;12.50;;;13.10;50.00;;;;;;5061803;28;20480;-50
2023/04/19 12:14:10;;;;;;;13.73;12.73;;;13.30;49.60;;;;;;5062306;28;20815;-48
2023/04/19 12:16:35;;;;;;;13.67;12.87;;;13.60;50.50;;;;;;5062340;28;20964;-45
2023/04/19 12:19:14;;;;;;;13.30;12.30;;;14.90;50.90;;;;;;5062558;28;20418;-49
2023/04/19 12:21:40;;;;;;;13.10;12.20;;;16.40;48.40;;;;;;5043891;28;20185;-49
2023/04/19 12:24:06;;;;;;;14.10;13.20;;;16.90;45.00;;;;;;5062069;28;20427;-47
2023/04/19 12:26:32;;;;;;;13.50;12.70;;;17.00;43.40;;;;;;5060773;28;20487;-51
2023/04/19 12:29:02;;;;;;;13.70;12.90;;;17.20;42.20;;;;;;5061448;28;20856;-51
2023/04/19 12:31:31;;;;;;;13.10;12.30;;;17.20;42.20;;;;;;5061137;28;20443;-48